Medicine Hat Airport
CYXH : now visible

Airfield :











YOU CAN JOIN US ON...

 
LOGIN :

Register | Disclaimer

   EN    FR    IT 

 









Legend :    VFR   Marginal VFR   IFR   Intensive IFR   Very Intensive IFR
Visi :
Ceiling :
>= 8 km
>= 3000ft
5 to 8 km
1000 to 3000 ft
1500m to 5 km
500 to 1000 ft
800 to 1500m
200 to 500 ft
< 800m
< 200 ft
Symbols :   Thunderstorms  Fog  Heavy snow  Heavy precipitations  Wind > 20 kt






- Airport Elevation : 2352 ft
- IATA code : YXH


CYXH - Medicine Hat

CURRENT METAR :
  • 100200Z 15003KT 100V190 30SM FEW055 BKN270 24/12 A2987 RMK SC1CI5 SC TR SLP115 DENSITY ALT 4000FT

EXPIRED METARs :
  • 100100Z 20005KT 110V220 30SM FEW055 SCT270 24/12 A2988 RMK CU1CI2 SLP118 DENSITY ALT 4000FT
  • 100000Z VRB02KT 30SM FEW055 FEW270 24/11 A2989 RMK CU1CI1 SLP122 DENSITY ALT 4000FT

TAF TAF CYXH
Valid from the 10 at 00:00 until the 10 at 12:00 UTC


092339Z 1000/1012 27005KT P6SM SCT060 BKN240
BECMG 1003/1005 17010KT
BECMG 1010/1012 22010KT RMK NXT FCST BY 100600Z
CZEG FIR / North America



MET'MAP, your aeronautical weather chart ! - Copyright ORBIFLY December 2007 - Disclaimer

ORBIFLY MET'MAP TEAM :

Programming & Development : Alexandra Zaïnal
Concept & original design : Baudouin d'Aumeries
Assistance for programming : Marc-Olivier Méhu
Technical & hardware support : Manuel Goepfert

Contact : metmap@orbifly.com




SOURCES & CREDITS :

   NOAA       Earth
Advisory